Time;durP1;ratioP1;P1;durP2;ratioP2;P2;SDS_P1;SDS_P2;PMS_P1;PMS_P2;Temp;Humidity;BMP_temperature;BMP_pressure;BME280_temperature;BME280_humidity;BME280_pressure;Samples;Min_cycle;Max_cycle;Signal;HPM_P1;HPM_P2
2023/07/23 00:02:25;;;;;;;2.17;1.77;;;;;;;;;;5112356;28;20754;-82
2023/07/23 00:04:51;;;;;;;2.17;1.73;;;;;;;;;;5112199;28;20393;-82
2023/07/23 00:07:17;;;;;;;2.38;1.70;;;;;;;;;;5094019;28;20412;-82
2023/07/23 00:09:43;;;;;;;2.20;1.83;;;;;;;;;;5112039;28;20443;-82
2023/07/23 00:12:09;;;;;;;1.87;1.77;;;;;;;;;;5112143;28;20384;-82
2023/07/23 00:14:35;;;;;;;3.60;1.83;;;;;;;;;;5112202;28;20441;-82
2023/07/23 00:17:01;;;;;;;2.40;1.95;;;;;;;;;;5111892;28;20408;-82
2023/07/23 00:19:27;;;;;;;2.75;1.90;;;;;;;;;;5111676;28;20451;-82
2023/07/23 00:21:53;;;;;;;2.28;2.00;;;;;;;;;;5111884;28;20763;-82
2023/07/23 00:24:19;;;;;;;2.05;1.85;;;;;;;;;;5112072;28;20490;-82
2023/07/23 00:26:45;;;;;;;2.00;1.80;;;;;;;;;;5111975;28;20479;-82
2023/07/23 00:29:11;;;;;;;3.00;2.10;;;;;;;;;;5111612;28;20388;-82
2023/07/23 00:31:38;;;;;;;1.95;1.85;;;;;;;;;;5111931;28;20384;-81
2023/07/23 00:34:04;;;;;;;3.03;2.00;;;;;;;;;;5124409;22;20424;-87
2023/07/23 00:36:30;;;;;;;2.00;1.80;;;;;;;;;;5111915;28;20416;-88
2023/07/23 00:38:56;;;;;;;2.20;1.80;;;;;;;;;;5111992;28;20752;-87
2023/07/23 00:41:22;;;;;;;1.90;1.80;;;;;;;;;;5111653;28;20364;-88
2023/07/23 00:43:48;;;;;;;2.38;1.92;;;;;;;;;;5111703;28;20395;-88
2023/07/23 00:46:14;;;;;;;2.50;1.92;;;;;;;;;;5108455;28;20452;-88
2023/07/23 00:48:40;;;;;;;2.30;2.10;;;;;;;;;;5111714;28;20380;-87
2023/07/23 00:51:06;;;;;;;2.28;2.05;;;;;;;;;;5111409;28;20425;-87
2023/07/23 00:53:32;;;;;;;2.30;1.97;;;;;;;;;;5111601;28;20677;-87
2023/07/23 00:55:59;;;;;;;2.33;1.77;;;;;;;;;;5111601;28;20419;-87
2023/07/23 00:58:25;;;;;;;3.70;1.90;;;;;;;;;;5111391;28;20454;-88
2023/07/23 01:00:51;;;;;;;2.80;2.05;;;;;;;;;;5111584;28;20376;-89
2023/07/23 01:03:17;;;;;;;2.08;1.90;;;;;;;;;;5096952;28;20384;-88
2023/07/23 01:05:45;;;;;;;2.60;2.00;;;;;;;;;;5093818;28;20385;-88
2023/07/23 01:08:11;;;;;;;2.20;2.00;;;;;;;;;;5078970;28;20476;-87
2023/07/23 01:10:37;;;;;;;1.88;1.77;;;;;;;;;;5108759;28;20478;-87
2023/07/23 01:13:03;;;;;;;2.60;2.00;;;;;;;;;;5111450;28;20380;-88
2023/07/23 01:15:29;;;;;;;1.90;1.80;;;;;;;;;;5093099;28;20395;-87
2023/07/23 01:17:57;;;;;;;2.17;1.98;;;;;;;;;;5102533;28;20395;-87
2023/07/23 01:20:23;;;;;;;2.05;1.83;;;;;;;;;;5111241;28;20380;-88
2023/07/23 01:22:49;;;;;;;2.20;1.80;;;;;;;;;;5111333;28;20728;-88
2023/07/23 01:25:15;;;;;;;2.20;2.00;;;;;;;;;;5111252;28;20372;-87
2023/07/23 01:27:41;;;;;;;2.08;1.75;;;;;;;;;;5111341;28;20877;-87
2023/07/23 01:30:10;;;;;;;2.17;1.98;;;;;;;;;;5097706;28;20465;-87
2023/07/23 01:32:37;;;;;;;1.90;1.80;;;;;;;;;;5110353;28;20453;-89
2023/07/23 01:35:08;;;;;;;2.67;1.90;;;;;;;;;;5115466;28;20495;-88
2023/07/23 01:37:34;;;;;;;2.60;1.73;;;;;;;;;;5115171;28;20387;-88
2023/07/23 01:40:00;;;;;;;2.58;1.90;;;;;;;;;;5115262;28;20864;-88
2023/07/23 01:42:26;;;;;;;2.13;1.70;;;;;;;;;;5112972;28;20745;-88
2023/07/23 01:44:52;;;;;;;2.10;1.90;;;;;;;;;;5114815;28;20404;-88
2023/07/23 01:47:18;;;;;;;2.25;1.83;;;;;;;;;;5114889;28;20376;-88
2023/07/23 01:49:44;;;;;;;2.20;2.00;;;;;;;;;;5114560;28;20380;-87
2023/07/23 01:52:10;;;;;;;1.80;1.70;;;;;;;;;;5107459;28;20457;-87
2023/07/23 01:54:36;;;;;;;2.23;2.00;;;;;;;;;;5100953;28;20408;-88
2023/07/23 01:57:03;;;;;;;2.30;2.10;;;;;;;;;;5112687;28;20380;-87
2023/07/23 01:59:29;;;;;;;2.03;1.90;;;;;;;;;;5111803;28;20457;-87
2023/07/23 02:01:55;;;;;;;4.30;2.10;;;;;;;;;;5114508;28;20376;-88
2023/07/23 02:04:21;;;;;;;1.90;1.80;;;;;;;;;;5114516;28;20431;-87
2023/07/23 02:06:47;;;;;;;2.50;2.00;;;;;;;;;;5114523;28;20922;-87
2023/07/23 02:09:13;;;;;;;1.90;1.80;;;;;;;;;;5114509;28;20421;-87
2023/07/23 02:11:39;;;;;;;2.35;1.75;;;;;;;;;;5114797;28;20434;-87
2023/07/23 02:14:05;;;;;;;2.85;2.00;;;;;;;;;;5114338;28;20841;-87
2023/07/23 02:16:31;;;;;;;2.45;1.77;;;;;;;;;;5114402;28;20411;-88
2023/07/23 02:18:57;;;;;;;2.00;1.88;;;;;;;;;;5114232;28;20400;-88
2023/07/23 02:21:22;;;;;;;2.13;1.92;;;;;;;;;;5114271;28;20710;-87
2023/07/23 02:23:48;;;;;;;2.10;1.65;;;;;;;;;;5114117;28;20455;-87
2023/07/23 02:26:14;;;;;;;2.10;1.90;;;;;;;;;;5114180;28;20380;-88
2023/07/23 02:28:42;;;;;;;2.27;2.07;;;;;;;;;;5114100;28;20737;-87
2023/07/23 02:31:08;;;;;;;2.00;1.90;;;;;;;;;;5114060;28;20365;-87
2023/07/23 02:33:34;;;;;;;2.13;1.70;;;;;;;;;;5113785;28;20447;-87
2023/07/23 02:36:00;;;;;;;1.97;1.87;;;;;;;;;;5113939;28;20430;-87
2023/07/23 02:38:26;;;;;;;2.70;2.00;;;;;;;;;;5105707;28;20441;-88
2023/07/23 02:40:56;;;;;;;2.03;1.85;;;;;;;;;;5097577;28;20410;-87
2023/07/23 02:43:22;;;;;;;2.40;2.20;;;;;;;;;;5113566;28;20369;-87
2023/07/23 02:45:48;;;;;;;2.25;1.98;;;;;;;;;;5100990;28;20382;-88
2023/07/23 02:48:14;;;;;;;1.85;1.75;;;;;;;;;;5112346;28;20741;-89
2023/07/23 02:50:40;;;;;;;1.80;1.70;;;;;;;;;;5113764;28;20473;-89
2023/07/23 02:53:06;;;;;;;2.00;1.90;;;;;;;;;;5095158;28;20372;-89
2023/07/23 02:55:33;;;;;;;4.40;1.98;;;;;;;;;;5113686;28;20380;-88
2023/07/23 02:58:00;;;;;;;2.70;2.50;;;;;;;;;;5113782;28;20380;-89
2023/07/23 03:00:28;;;;;;;2.30;2.10;;;;;;;;;;5095586;28;20377;-89
2023/07/23 03:02:54;;;;;;;2.50;2.30;;;;;;;;;;5113540;28;20404;-89
2023/07/23 03:05:20;;;;;;;2.43;2.23;;;;;;;;;;5113392;28;20797;-88
2023/07/23 03:07:46;;;;;;;2.35;2.00;;;;;;;;;;5113472;28;20376;-90
2023/07/23 03:10:12;;;;;;;2.65;2.25;;;;;;;;;;5113322;28;20382;-88
2023/07/23 03:12:38;;;;;;;2.73;2.53;;;;;;;;;;5113301;28;20396;-89
2023/07/23 03:15:05;;;;;;;2.30;2.13;;;;;;;;;;5112444;28;20562;-89
2023/07/23 03:17:31;;;;;;;2.57;1.97;;;;;;;;;;5110772;28;20384;-89
2023/07/23 03:19:58;;;;;;;2.38;2.17;;;;;;;;;;5099023;28;20942;-89
2023/07/23 03:22:24;;;;;;;2.30;2.10;;;;;;;;;;5098751;28;20433;-88
2023/07/23 03:24:50;;;;;;;4.63;2.20;;;;;;;;;;5094770;28;20400;-88
2023/07/23 03:27:16;;;;;;;2.38;2.17;;;;;;;;;;5112959;28;20380;-89
2023/07/23 03:29:42;;;;;;;2.53;2.00;;;;;;;;;;5106657;28;20386;-90
2023/07/23 03:32:08;;;;;;;2.30;2.10;;;;;;;;;;5104831;28;20472;-88
2023/07/23 03:34:34;;;;;;;2.20;2.00;;;;;;;;;;5098516;28;20373;-89
2023/07/23 03:37:00;;;;;;;2.10;1.90;;;;;;;;;;5112895;28;20377;-89
2023/07/23 03:39:26;;;;;;;2.00;1.90;;;;;;;;;;5094320;28;20804;-89
2023/07/23 03:41:52;;;;;;;2.70;1.90;;;;;;;;;;5094493;28;20443;-89
2023/07/23 03:44:18;;;;;;;2.95;2.10;;;;;;;;;;5097922;28;20386;-88
2023/07/23 03:46:45;;;;;;;1.80;1.70;;;;;;;;;;5111317;28;20400;-89
2023/07/23 03:49:11;;;;;;;2.78;2.00;;;;;;;;;;5112645;28;20368;-90
2023/07/23 03:51:37;;;;;;;2.42;2.13;;;;;;;;;;5112483;28;20381;-90
2023/07/23 03:54:03;;;;;;;2.35;1.85;;;;;;;;;;5111956;28;20460;-90
2023/07/23 03:56:29;;;;;;;2.00;1.80;;;;;;;;;;5112464;28;20402;-90
2023/07/23 03:58:55;;;;;;;2.05;1.85;;;;;;;;;;5097993;27;20733;-90
2023/07/23 04:01:21;;;;;;;1.93;1.80;;;;;;;;;;5132784;27;20363;-90
2023/07/23 04:03:47;;;;;;;2.00;1.90;;;;;;;;;;5132754;27;20731;-90
2023/07/23 04:06:13;;;;;;;2.42;2.05;;;;;;;;;;5108357;27;20391;-90
2023/07/23 04:08:39;;;;;;;2.75;1.83;;;;;;;;;;5130780;27;20383;-91
2023/07/23 04:11:05;;;;;;;2.83;2.10;;;;;;;;;;5132810;27;20382;-91
2023/07/23 04:13:31;;;;;;;2.45;2.10;;;;;;;;;;5132535;27;20378;-90
2023/07/23 04:15:59;;;;;;;2.40;1.80;;;;;;;;;;5125641;27;20477;-90
2023/07/23 04:18:25;;;;;;;2.10;1.90;;;;;;;;;;5094156;28;20394;-91
2023/07/23 04:20:51;;;;;;;2.13;2.00;;;;;;;;;;5132591;27;20377;-91
2023/07/23 04:23:17;;;;;;;2.00;1.90;;;;;;;;;;5114311;27;20437;-90
2023/07/23 04:25:43;;;;;;;1.90;1.70;;;;;;;;;;5117765;27;20387;-90
2023/07/23 04:28:09;;;;;;;1.80;1.70;;;;;;;;;;5132597;27;20370;-91
2023/07/23 04:30:35;;;;;;;1.90;1.80;;;;;;;;;;5086404;28;20394;-90
2023/07/23 04:33:02;;;;;;;2.40;2.03;;;;;;;;;;5121832;27;20404;-91
2023/07/23 04:35:28;;;;;;;2.97;2.10;;;;;;;;;;5111838;28;20877;-90
2023/07/23 04:37:54;;;;;;;3.92;2.08;;;;;;;;;;5111946;28;20380;-90
2023/07/23 04:40:21;;;;;;;2.20;2.00;;;;;;;;;;5093748;28;20395;-90
2023/07/23 04:42:47;;;;;;;2.27;2.07;;;;;;;;;;5111465;28;20933;-91
2023/07/23 04:45:13;;;;;;;2.30;2.00;;;;;;;;;;5096441;28;20374;-91
2023/07/23 04:47:40;;;;;;;1.75;1.60;;;;;;;;;;5073137;28;20771;-91
2023/07/23 04:50:06;;;;;;;2.55;2.00;;;;;;;;;;5091382;28;20382;-92
2023/07/23 04:52:32;;;;;;;2.20;2.00;;;;;;;;;;5091296;28;20765;-90
2023/07/23 04:54:58;;;;;;;2.20;2.00;;;;;;;;;;5091142;28;20389;-91
2023/07/23 04:57:24;;;;;;;2.33;2.00;;;;;;;;;;5073149;28;20875;-91
2023/07/23 04:59:50;;;;;;;2.25;2.05;;;;;;;;;;5091072;28;20409;-92
2023/07/23 05:02:16;;;;;;;2.13;2.03;;;;;;;;;;5064637;28;20434;-90
2023/07/23 05:04:42;;;;;;;2.30;2.10;;;;;;;;;;5085471;28;20389;-90
2023/07/23 05:07:08;;;;;;;2.35;2.15;;;;;;;;;;5094100;28;20919;-91
2023/07/23 05:09:34;;;;;;;2.30;2.10;;;;;;;;;;5095265;28;20378;-92
2023/07/23 05:12:00;;;;;;;2.15;1.98;;;;;;;;;;5095194;28;20736;-91
2023/07/23 05:14:26;;;;;;;2.53;2.25;;;;;;;;;;5095289;28;20418;-91
2023/07/23 05:16:52;;;;;;;2.33;2.08;;;;;;;;;;5086334;28;20383;-90
2023/07/23 05:19:18;;;;;;;2.33;2.10;;;;;;;;;;5095138;28;20440;-90
2023/07/23 05:21:44;;;;;;;2.67;2.37;;;;;;;;;;5095062;28;20390;-91
2023/07/23 05:24:10;;;;;;;2.50;2.13;;;;;;;;;;5094936;28;20374;-91
2023/07/23 05:26:36;;;;;;;2.42;2.22;;;;;;;;;;5089894;28;20365;-91
2023/07/23 05:29:02;;;;;;;2.70;2.00;;;;;;;;;;5094895;28;20456;-91
2023/07/23 05:31:28;;;;;;;2.22;2.13;;;;;;;;;;5095177;28;20406;-91
2023/07/23 05:33:54;;;;;;;2.50;2.30;;;;;;;;;;5111302;28;20531;-90
2023/07/23 05:36:20;;;;;;;2.27;2.07;;;;;;;;;;5119699;28;20377;-91
2023/07/23 05:38:46;;;;;;;2.45;2.10;;;;;;;;;;5120229;28;20912;-90
2023/07/23 05:41:12;;;;;;;2.83;2.00;;;;;;;;;;5106272;28;20380;-90
2023/07/23 05:43:38;;;;;;;2.30;2.10;;;;;;;;;;5091235;27;20385;-91
2023/07/23 05:46:04;;;;;;;2.25;2.05;;;;;;;;;;5090540;28;20374;-90
2023/07/23 05:48:30;;;;;;;2.30;2.10;;;;;;;;;;5116064;28;20385;-90
2023/07/23 05:50:56;;;;;;;2.30;1.80;;;;;;;;;;5115720;28;20399;-90
2023/07/23 05:53:22;;;;;;;2.22;2.03;;;;;;;;;;5114971;28;20742;-91
2023/07/23 05:55:48;;;;;;;3.40;2.15;;;;;;;;;;5096602;28;20396;-90
2023/07/23 05:58:14;;;;;;;2.42;2.10;;;;;;;;;;5114792;28;20457;-92
2023/07/23 06:00:40;;;;;;;2.83;2.10;;;;;;;;;;5114830;28;20380;-92
2023/07/23 06:03:06;;;;;;;2.30;2.10;;;;;;;;;;5114499;28;20403;-91
2023/07/23 06:05:32;;;;;;;2.15;2.00;;;;;;;;;;5114642;28;20457;-91
2023/07/23 06:07:58;;;;;;;1.90;1.80;;;;;;;;;;5114696;28;21190;-90
2023/07/23 06:10:24;;;;;;;2.25;2.05;;;;;;;;;;5096362;28;20384;-91
2023/07/23 06:12:50;;;;;;;2.25;2.10;;;;;;;;;;5114479;28;20380;-91
2023/07/23 06:15:16;;;;;;;2.38;2.17;;;;;;;;;;5113028;28;20377;-90
2023/07/23 06:17:42;;;;;;;4.05;2.80;;;;;;;;;;5105059;28;20877;-91
2023/07/23 06:20:08;;;;;;;2.85;2.65;;;;;;;;;;5114310;28;20500;-90
2023/07/23 06:22:34;;;;;;;3.40;3.00;;;;;;;;;;5114312;28;20429;-90
2023/07/23 06:25:00;;;;;;;2.95;2.55;;;;;;;;;;5114412;28;20451;-91
2023/07/23 06:27:26;;;;;;;2.35;2.15;;;;;;;;;;5096058;28;20377;-91
2023/07/23 06:29:52;;;;;;;2.88;2.40;;;;;;;;;;5095903;28;20385;-89
2023/07/23 06:32:18;;;;;;;2.88;2.53;;;;;;;;;;5095797;28;21312;-88
2023/07/23 06:34:44;;;;;;;2.38;2.17;;;;;;;;;;5114052;28;20408;-90
2023/07/23 06:37:10;;;;;;;2.30;2.10;;;;;;;;;;5114096;28;20380;-90
2023/07/23 06:39:36;;;;;;;3.08;2.63;;;;;;;;;;5110289;28;20767;-88
2023/07/23 06:42:02;;;;;;;2.90;2.67;;;;;;;;;;5085295;28;20448;-88
2023/07/23 06:44:28;;;;;;;2.83;2.57;;;;;;;;;;5095600;28;20461;-88
2023/07/23 06:46:57;;;;;;;2.50;2.30;;;;;;;;;;5113963;28;20380;-85
2023/07/23 06:49:28;;;;;;;2.90;2.38;;;;;;;;;;5113839;28;20520;-88
2023/07/23 06:51:54;;;;;;;3.25;2.60;;;;;;;;;;5092368;28;20419;-88
2023/07/23 06:54:20;;;;;;;3.58;2.47;;;;;;;;;;5113682;28;20384;-86
2023/07/23 06:56:46;;;;;;;2.63;2.42;;;;;;;;;;5095293;28;20373;-91
2023/07/23 06:59:12;;;;;;;2.80;2.50;;;;;;;;;;5113858;28;21234;-87
2023/07/23 07:01:38;;;;;;;3.90;2.47;;;;;;;;;;5110635;28;20414;-87
2023/07/23 07:04:05;;;;;;;2.78;2.58;;;;;;;;;;5084221;28;20423;-85
2023/07/23 07:06:31;;;;;;;2.50;2.30;;;;;;;;;;5113446;28;20729;-88
2023/07/23 07:08:57;;;;;;;2.90;2.60;;;;;;;;;;5113601;28;20441;-88
2023/07/23 07:11:23;;;;;;;4.18;2.80;;;;;;;;;;5113367;28;20848;-87
2023/07/23 07:13:49;;;;;;;2.95;2.58;;;;;;;;;;5108575;28;20378;-89
2023/07/23 07:16:16;;;;;;;2.93;2.50;;;;;;;;;;5082402;28;20496;-87
2023/07/23 07:18:42;;;;;;;2.60;2.40;;;;;;;;;;5110564;28;20396;-88
2023/07/23 07:21:08;;;;;;;2.60;2.15;;;;;;;;;;5110253;28;20368;-87
2023/07/23 07:23:34;;;;;;;2.92;2.40;;;;;;;;;;5112951;28;20496;-88
2023/07/23 07:26:01;;;;;;;3.22;2.33;;;;;;;;;;5094747;28;20751;-88
2023/07/23 07:28:27;;;;;;;2.20;2.00;;;;;;;;;;5093944;28;20525;-88
2023/07/23 07:30:58;;;;;;;2.58;2.30;;;;;;;;;;5093895;28;20416;-88
2023/07/23 07:33:24;;;;;;;2.47;2.22;;;;;;;;;;5129070;27;20426;-88
2023/07/23 07:35:52;;;;;;;2.42;2.22;;;;;;;;;;5114969;27;20402;-88
2023/07/23 07:38:18;;;;;;;2.72;2.30;;;;;;;;;;5133481;27;20497;-88
2023/07/23 07:40:44;;;;;;;2.50;2.30;;;;;;;;;;5114889;27;20801;-88
2023/07/23 07:43:10;;;;;;;3.53;2.10;;;;;;;;;;5112991;28;20392;-85
2023/07/23 07:45:36;;;;;;;2.60;2.40;;;;;;;;;;5096459;28;20386;-87
2023/07/23 07:48:02;;;;;;;2.70;2.10;;;;;;;;;;5122897;27;20457;-87
2023/07/23 07:50:28;;;;;;;3.58;2.03;;;;;;;;;;5133167;27;20383;-88
2023/07/23 07:52:54;;;;;;;2.50;2.30;;;;;;;;;;5132890;27;20416;-86
2023/07/23 07:55:20;;;;;;;2.25;2.05;;;;;;;;;;5114902;27;20395;-87
2023/07/23 07:57:46;;;;;;;2.28;1.80;;;;;;;;;;5106137;27;20874;-88
2023/07/23 08:00:12;;;;;;;3.22;2.03;;;;;;;;;;5093177;28;20400;-88
2023/07/23 08:02:39;;;;;;;2.63;2.22;;;;;;;;;;5093905;28;20377;-87
2023/07/23 08:05:06;;;;;;;2.73;1.97;;;;;;;;;;5112166;28;20415;-88
2023/07/23 08:07:32;;;;;;;2.10;1.90;;;;;;;;;;5111427;28;20418;-87
2023/07/23 08:10:00;;;;;;;2.92;2.10;;;;;;;;;;5108184;28;20409;-87
2023/07/23 08:12:26;;;;;;;2.63;2.10;;;;;;;;;;5104159;28;20401;-88
2023/07/23 08:14:54;;;;;;;2.03;1.83;;;;;;;;;;5117961;27;20449;-88
2023/07/23 08:17:20;;;;;;;2.13;1.92;;;;;;;;;;5108633;27;20798;-88
2023/07/23 08:19:46;;;;;;;4.65;1.98;;;;;;;;;;5118939;27;20400;-89
2023/07/23 08:22:12;;;;;;;2.13;1.92;;;;;;;;;;5093368;28;20441;-89
2023/07/23 08:24:39;;;;;;;2.07;1.97;;;;;;;;;;5130473;27;20414;-89
2023/07/23 08:27:06;;;;;;;1.95;1.77;;;;;;;;;;5132474;27;20378;-88
2023/07/23 08:29:34;;;;;;;1.92;1.77;;;;;;;;;;5122717;27;20924;-90
2023/07/23 08:32:00;;;;;;;2.03;1.80;;;;;;;;;;5107101;27;20481;-90
2023/07/23 08:34:27;;;;;;;2.10;1.90;;;;;;;;;;5113839;27;20755;-89
2023/07/23 08:36:54;;;;;;;2.22;2.03;;;;;;;;;;5132480;27;20410;-88
2023/07/23 08:39:21;;;;;;;1.85;1.75;;;;;;;;;;5110765;28;20763;-89
2023/07/23 08:42:14;;;;;;;2.15;1.95;;;;;;;;;;5101637;27;20376;-89
2023/07/23 08:44:58;;;;;;;2.10;1.90;;;;;;;;;;5132096;27;20423;-89
2023/07/23 08:47:27;;;;;;;2.00;1.80;;;;;;;;;;5113919;28;20374;-89
2023/07/23 08:49:53;;;;;;;2.40;1.95;;;;;;;;;;5132442;27;20903;-90
2023/07/23 08:52:20;;;;;;;1.95;1.83;;;;;;;;;;5132245;27;20378;-90
2023/07/23 08:54:46;;;;;;;2.30;2.10;;;;;;;;;;5132093;28;20379;-90
2023/07/23 08:57:12;;;;;;;1.95;1.85;;;;;;;;;;5120167;28;20411;-89
2023/07/23 08:59:40;;;;;;;1.80;1.70;;;;;;;;;;5121569;28;20759;-90
2023/07/23 09:02:07;;;;;;;2.07;1.87;;;;;;;;;;5131964;28;20382;-90
2023/07/23 09:04:34;;;;;;;2.00;1.80;;;;;;;;;;5132058;28;20411;-89
2023/07/23 09:07:00;;;;;;;2.15;1.90;;;;;;;;;;5131935;28;20871;-90
2023/07/23 09:09:26;;;;;;;1.70;1.60;;;;;;;;;;5132078;28;20374;-89
2023/07/23 09:11:52;;;;;;;2.70;1.70;;;;;;;;;;5131845;28;20379;-89
2023/07/23 09:14:19;;;;;;;2.88;1.77;;;;;;;;;;5112858;28;20815;-90
2023/07/23 09:16:46;;;;;;;1.92;1.70;;;;;;;;;;5098545;28;20713;-90
2023/07/23 09:19:13;;;;;;;1.60;1.50;;;;;;;;;;5126128;28;20406;-90
2023/07/23 09:21:42;;;;;;;1.90;1.70;;;;;;;;;;5132079;28;20394;-90
2023/07/23 09:24:12;;;;;;;1.70;1.58;;;;;;;;;;5131775;28;20374;-89
2023/07/23 09:26:38;;;;;;;1.60;1.50;;;;;;;;;;5131887;28;20386;-89
2023/07/23 09:29:08;;;;;;;2.03;1.40;;;;;;;;;;5091349;28;20379;-90
2023/07/23 09:31:34;;;;;;;2.40;1.30;;;;;;;;;;5108066;28;20391;-89
2023/07/23 09:34:01;;;;;;;1.90;1.38;;;;;;;;;;5124243;28;20438;-90
2023/07/23 09:36:28;;;;;;;2.80;1.67;;;;;;;;;;5129310;28;20774;-90
2023/07/23 09:38:55;;;;;;;2.75;1.58;;;;;;;;;;5086358;28;20413;-89
2023/07/23 09:41:21;;;;;;;2.17;1.30;;;;;;;;;;5090867;28;20440;-88
2023/07/23 09:43:47;;;;;;;1.52;1.40;;;;;;;;;;5130851;28;20374;-89
2023/07/23 09:46:13;;;;;;;1.40;1.30;;;;;;;;;;5131618;28;20408;-88
2023/07/23 09:48:48;;;;;;;2.35;1.50;;;;;;;;;;5113522;28;20387;-89
2023/07/23 09:51:14;;;;;;;1.30;1.20;;;;;;;;;;5125525;28;20504;-87
2023/07/23 09:53:46;;;;;;;1.30;1.20;;;;;;;;;;5135123;27;20378;-88
2023/07/23 09:56:15;;;;;;;2.33;1.33;;;;;;;;;;5135340;27;20459;-90
2023/07/23 09:58:46;;;;;;;2.28;1.52;;;;;;;;;;5135520;27;20395;-89
2023/07/23 10:01:12;;;;;;;2.10;1.50;;;;;;;;;;5135498;27;20374;-89
2023/07/23 10:03:39;;;;;;;2.13;1.60;;;;;;;;;;5094955;28;20925;-90
2023/07/23 10:06:10;;;;;;;3.08;1.80;;;;;;;;;;5094398;28;20884;-89
2023/07/23 10:08:37;;;;;;;1.50;1.40;;;;;;;;;;5131071;27;20899;-89
2023/07/23 10:11:03;;;;;;;1.80;1.50;;;;;;;;;;5135105;27;20498;-88
2023/07/23 10:13:29;;;;;;;1.42;1.33;;;;;;;;;;5134886;27;20446;-89
2023/07/23 10:15:56;;;;;;;1.77;1.58;;;;;;;;;;5128640;27;20374;-88
2023/07/23 10:18:24;;;;;;;2.20;1.48;;;;;;;;;;5117819;27;20386;-91
2023/07/23 10:20:50;;;;;;;2.08;1.52;;;;;;;;;;5135002;27;20367;-91
2023/07/23 10:23:16;;;;;;;2.22;1.50;;;;;;;;;;5134977;27;20449;-88
2023/07/23 10:25:42;;;;;;;1.70;1.60;;;;;;;;;;5134880;27;20375;-89
2023/07/23 10:28:09;;;;;;;3.70;1.40;;;;;;;;;;5116421;27;20744;-89
2023/07/23 10:30:39;;;;;;;3.90;2.00;;;;;;;;;;5107108;27;20844;-88
2023/07/23 10:33:25;;;;;;;1.90;1.70;;;;;;;;;;5099429;28;20396;-90
2023/07/23 10:36:04;;;;;;;2.15;1.70;;;;;;;;;;5096722;28;20866;-89
2023/07/23 10:38:38;;;;;;;2.45;1.92;;;;;;;;;;5113985;28;20400;-90
2023/07/23 10:41:04;;;;;;;1.98;1.70;;;;;;;;;;5113867;28;20857;-89
2023/07/23 10:43:48;;;;;;;2.15;1.95;;;;;;;;;;5113894;28;20406;-89
2023/07/23 10:46:17;;;;;;;1.90;1.80;;;;;;;;;;5099416;28;20427;-88
2023/07/23 10:48:44;;;;;;;2.83;2.30;;;;;;;;;;5095539;28;20935;-90
2023/07/23 10:51:11;;;;;;;2.90;2.47;;;;;;;;;;5113943;28;20473;-90
2023/07/23 10:53:41;;;;;;;3.85;2.40;;;;;;;;;;5113960;28;20787;-90
2023/07/23 10:56:27;;;;;;;2.22;2.08;;;;;;;;;;5113678;28;20372;-91
2023/07/23 10:59:07;;;;;;;2.78;2.58;;;;;;;;;;5101750;28;20411;-88
2023/07/23 11:01:38;;;;;;;2.78;2.30;;;;;;;;;;5111215;28;20381;-88
2023/07/23 11:04:11;;;;;;;2.13;1.95;;;;;;;;;;5107326;27;20370;-88
2023/07/23 11:06:41;;;;;;;2.95;2.40;;;;;;;;;;5117540;27;20396;-89
2023/07/23 11:09:10;;;;;;;4.22;2.40;;;;;;;;;;5133983;27;20403;-88
2023/07/23 11:11:36;;;;;;;2.80;2.60;;;;;;;;;;5133850;27;20371;-88
2023/07/23 11:14:22;;;;;;;2.97;2.58;;;;;;;;;;5133849;27;20379;-89
2023/07/23 11:16:49;;;;;;;2.75;2.55;;;;;;;;;;5115123;27;20391;-89
2023/07/23 11:19:19;;;;;;;2.92;2.58;;;;;;;;;;5116730;28;20400;-88
2023/07/23 11:21:52;;;;;;;2.95;2.65;;;;;;;;;;5124072;27;20367;-89
2023/07/23 11:24:19;;;;;;;3.05;2.80;;;;;;;;;;5133978;27;20371;-86
2023/07/23 11:26:45;;;;;;;3.90;2.70;;;;;;;;;;5125554;27;20368;-87
2023/07/23 11:29:11;;;;;;;3.28;2.90;;;;;;;;;;5092026;28;20379;-88
2023/07/23 11:31:37;;;;;;;3.50;3.03;;;;;;;;;;5098167;28;20380;-88
2023/07/23 11:34:05;;;;;;;3.22;2.78;;;;;;;;;;5120042;27;20421;-87
2023/07/23 11:36:31;;;;;;;2.90;2.70;;;;;;;;;;5133471;27;20363;-88
2023/07/23 11:38:57;;;;;;;3.13;2.83;;;;;;;;;;5100369;28;20892;-87
2023/07/23 11:41:32;;;;;;;3.78;3.22;;;;;;;;;;5097944;28;20887;-89
2023/07/23 11:43:59;;;;;;;3.75;3.45;;;;;;;;;;5096155;28;20386;-87
2023/07/23 11:46:25;;;;;;;6.30;3.50;;;;;;;;;;5098839;28;20411;-86
2023/07/23 11:48:52;;;;;;;3.50;3.20;;;;;;;;;;5103833;28;20448;-88
2023/07/23 11:51:18;;;;;;;3.42;3.13;;;;;;;;;;5098702;28;20390;-87
2023/07/23 11:53:44;;;;;;;3.78;3.47;;;;;;;;;;5102185;28;20919;-88
2023/07/23 11:56:13;;;;;;;3.83;3.42;;;;;;;;;;5093593;28;20407;-88
2023/07/23 11:58:40;;;;;;;4.05;3.75;;;;;;;;;;5112037;28;20947;-88
2023/07/23 12:01:09;;;;;;;4.30;3.38;;;;;;;;;;5111401;28;20489;-88
2023/07/23 12:03:40;;;;;;;3.92;3.63;;;;;;;;;;5112030;28;20399;-88
2023/07/23 12:06:06;;;;;;;4.95;4.35;;;;;;;;;;5112222;28;20379;-87
2023/07/23 12:08:32;;;;;;;4.90;4.40;;;;;;;;;;5112166;28;20372;-88
2023/07/23 12:11:00;;;;;;;5.25;4.78;;;;;;;;;;5112168;28;20376;-89
2023/07/23 12:13:26;;;;;;;5.35;4.82;;;;;;;;;;5112032;28;20455;-88
2023/07/23 12:15:57;;;;;;;6.10;4.65;;;;;;;;;;5104849;28;20404;-88
2023/07/23 12:18:23;;;;;;;4.87;4.47;;;;;;;;;;5099003;28;20388;-86
2023/07/23 12:20:49;;;;;;;5.50;5.00;;;;;;;;;;5093812;28;20369;-87
2023/07/23 12:23:15;;;;;;;4.93;4.53;;;;;;;;;;5075983;28;20385;-88
2023/07/23 12:25:41;;;;;;;5.15;4.65;;;;;;;;;;5102283;28;20382;-86
2023/07/23 12:28:08;;;;;;;5.65;5.15;;;;;;;;;;5084824;28;20784;-85
2023/07/23 12:30:34;;;;;;;5.23;4.70;;;;;;;;;;5110928;28;20396;-84
2023/07/23 12:33:00;;;;;;;5.50;5.00;;;;;;;;;;5116089;27;20459;-84
2023/07/23 12:35:26;;;;;;;5.10;4.70;;;;;;;;;;5132397;27;20890;-84
2023/07/23 12:37:52;;;;;;;5.40;4.90;;;;;;;;;;5131442;27;20382;-83
2023/07/23 12:40:18;;;;;;;5.63;4.70;;;;;;;;;;5113851;28;20503;-83
2023/07/23 12:42:44;;;;;;;6.88;4.97;;;;;;;;;;5131910;27;20426;-83
2023/07/23 12:45:11;;;;;;;5.50;5.00;;;;;;;;;;5132338;27;20378;-83
2023/07/23 12:47:37;;;;;;;5.28;4.78;;;;;;;;;;5132265;27;20374;-83
2023/07/23 12:50:03;;;;;;;6.10;5.10;;;;;;;;;;5132078;27;20727;-82
2023/07/23 12:52:29;;;;;;;5.53;5.03;;;;;;;;;;5132109;27;20379;-83
2023/07/23 12:54:55;;;;;;;6.30;4.70;;;;;;;;;;5081368;28;20387;-84
2023/07/23 12:57:22;;;;;;;6.30;5.45;;;;;;;;;;5108469;28;20856;-84
2023/07/23 12:59:48;;;;;;;6.03;5.43;;;;;;;;;;5111319;28;20513;-84
2023/07/23 13:02:14;;;;;;;6.07;5.57;;;;;;;;;;5111471;28;20377;-84
2023/07/23 13:04:42;;;;;;;7.00;6.13;;;;;;;;;;5111535;28;20372;-83
2023/07/23 13:07:08;;;;;;;6.65;6.05;;;;;;;;;;5105119;28;20408;-83
2023/07/23 13:09:34;;;;;;;7.20;6.10;;;;;;;;;;5103637;28;20395;-82
2023/07/23 13:12:00;;;;;;;6.50;5.90;;;;;;;;;;5111267;28;20387;-83
2023/07/23 13:14:26;;;;;;;6.72;6.07;;;;;;;;;;5093147;28;20815;-81
2023/07/23 13:16:52;;;;;;;6.00;5.40;;;;;;;;;;5102470;28;20461;-83
2023/07/23 13:19:18;;;;;;;6.47;5.97;;;;;;;;;;5093107;28;20400;-83
2023/07/23 13:21:44;;;;;;;6.83;6.13;;;;;;;;;;5111215;28;20864;-82
2023/07/23 13:24:11;;;;;;;6.60;6.10;;;;;;;;;;5111285;28;20376;-82
2023/07/23 13:26:37;;;;;;;6.55;5.97;;;;;;;;;;5092683;28;20376;-82
2023/07/23 13:29:03;;;;;;;6.68;5.97;;;;;;;;;;5096306;28;20448;-83
2023/07/23 13:31:29;;;;;;;6.88;6.20;;;;;;;;;;5108522;28;20871;-83
2023/07/23 13:33:55;;;;;;;6.80;6.20;;;;;;;;;;5114554;28;20415;-84
2023/07/23 13:36:21;;;;;;;6.67;6.07;;;;;;;;;;5113964;28;20429;-85
2023/07/23 13:38:47;;;;;;;7.90;5.90;;;;;;;;;;5115084;28;20415;-83
2023/07/23 13:41:13;;;;;;;6.63;5.93;;;;;;;;;;5115019;28;20380;-83
2023/07/23 13:43:39;;;;;;;6.30;5.80;;;;;;;;;;5115039;28;20456;-84
2023/07/23 13:46:05;;;;;;;6.55;5.95;;;;;;;;;;5114908;28;20849;-83
2023/07/23 13:48:31;;;;;;;6.50;5.95;;;;;;;;;;5115002;28;20373;-83
2023/07/23 13:50:57;;;;;;;6.38;5.78;;;;;;;;;;5101677;28;20934;-85
2023/07/23 13:53:23;;;;;;;6.40;5.82;;;;;;;;;;5113827;28;20491;-85
2023/07/23 13:55:49;;;;;;;5.90;5.40;;;;;;;;;;5114937;28;20376;-85
2023/07/23 13:58:15;;;;;;;6.35;5.75;;;;;;;;;;5113856;28;20459;-87
2023/07/23 14:00:41;;;;;;;6.47;5.88;;;;;;;;;;5086205;28;20908;-86
2023/07/23 14:03:07;;;;;;;6.72;6.05;;;;;;;;;;5114344;28;20416;-87
2023/07/23 14:05:34;;;;;;;6.18;5.65;;;;;;;;;;5107327;28;20413;-86
2023/07/23 14:08:00;;;;;;;6.40;5.80;;;;;;;;;;5108153;28;20868;-86
2023/07/23 14:10:26;;;;;;;6.85;6.15;;;;;;;;;;5114690;28;20385;-87
2023/07/23 14:12:52;;;;;;;6.77;6.17;;;;;;;;;;5099758;27;20886;-87
2023/07/23 14:15:18;;;;;;;6.20;5.65;;;;;;;;;;5135011;27;20476;-87
2023/07/23 14:17:44;;;;;;;6.47;5.90;;;;;;;;;;5097845;27;20393;-88
2023/07/23 14:20:10;;;;;;;6.13;5.63;;;;;;;;;;5124085;27;20883;-87
2023/07/23 14:22:36;;;;;;;7.05;5.82;;;;;;;;;;5116261;27;20751;-88
2023/07/23 14:25:02;;;;;;;6.50;5.80;;;;;;;;;;5134894;27;20462;-88
2023/07/23 14:27:28;;;;;;;6.72;5.65;;;;;;;;;;5134690;27;20956;-87
2023/07/23 14:29:54;;;;;;;5.90;5.40;;;;;;;;;;5120079;27;20461;-87
2023/07/23 14:32:20;;;;;;;6.00;5.40;;;;;;;;;;5114983;27;20755;-87
2023/07/23 14:34:46;;;;;;;6.50;5.90;;;;;;;;;;5134900;27;20415;-87
2023/07/23 14:37:12;;;;;;;6.50;5.70;;;;;;;;;;5116559;27;20983;-88
2023/07/23 14:39:40;;;;;;;6.38;5.85;;;;;;;;;;5133988;27;20421;-87
2023/07/23 14:42:06;;;;;;;6.15;5.55;;;;;;;;;;5129668;22;20441;-76